createdAt,value
2023-04-22T00:01:24.718Z,5.75
2023-04-22T00:03:53.347Z,8.50
2023-04-22T00:06:21.670Z,9.00
2023-04-22T00:08:49.853Z,6.25
2023-04-22T00:11:18.221Z,7.75
2023-04-22T00:13:47.878Z,6.00
2023-04-22T00:16:16.512Z,8.50
2023-04-22T00:18:44.720Z,7.50
2023-04-22T00:21:12.923Z,6.00
2023-04-22T00:23:41.091Z,7.00
2023-04-22T00:26:09.227Z,7.75
2023-04-22T00:28:37.985Z,6.75
2023-04-22T00:31:11.169Z,4.25
2023-04-22T00:33:39.539Z,7.00
2023-04-22T00:36:08.128Z,7.50
2023-04-22T00:38:36.359Z,12.25
2023-04-22T00:41:04.696Z,10.50
2023-04-22T00:43:34.199Z,4.00
2023-04-22T00:46:02.773Z,6.75
2023-04-22T00:48:33.160Z,9.00
2023-04-22T00:51:01.377Z,8.50
2023-04-22T00:53:29.518Z,6.00
2023-04-22T00:55:58.035Z,6.25
2023-04-22T00:58:27.308Z,8.50
2023-04-22T01:00:55.558Z,9.00
2023-04-22T01:03:24.416Z,8.75
2023-04-22T01:05:55.173Z,9.00
2023-04-22T01:08:23.326Z,5.75
2023-04-22T01:10:51.475Z,7.75
2023-04-22T01:13:19.663Z,5.50
2023-04-22T01:15:47.768Z,6.75
2023-04-22T01:18:16.512Z,4.75
2023-04-22T01:20:45.602Z,6.50
2023-04-22T01:23:18.775Z,6.75
2023-04-22T01:25:47.271Z,7.00
2023-04-22T01:28:15.652Z,7.00
2023-04-22T01:30:44.254Z,6.75
2023-04-22T01:33:12.885Z,7.75
2023-04-22T01:35:41.482Z,5.50
2023-04-22T01:38:10.945Z,8.00
2023-04-22T01:40:40.520Z,7.50
2023-04-22T01:43:09.139Z,7.25
2023-04-22T01:45:37.891Z,4.50
2023-04-22T01:48:07.087Z,5.00
2023-04-22T01:50:35.567Z,9.25
2023-04-22T01:53:04.588Z,7.00
2023-04-22T01:55:36.250Z,5.25
2023-04-22T01:58:06.629Z,6.75
2023-04-22T02:00:34.801Z,9.50
2023-04-22T02:03:03.148Z,11.50
2023-04-22T02:05:31.337Z,5.25
2023-04-22T02:07:59.631Z,6.00
2023-04-22T02:10:27.748Z,8.00
2023-04-22T02:12:56.085Z,7.25
2023-04-22T02:15:25.757Z,7.00
2023-04-22T02:17:55.511Z,3.50
2023-04-22T02:20:23.780Z,8.50
2023-04-22T02:22:52.316Z,6.50
2023-04-22T02:25:21.342Z,8.00
2023-04-22T02:27:51.666Z,9.00
2023-04-22T02:30:20.451Z,7.00
2023-04-22T02:32:51.217Z,3.00
2023-04-22T02:35:20.504Z,7.75
2023-04-22T02:37:52.186Z,7.00
2023-04-22T02:40:20.324Z,5.50
2023-04-22T02:42:48.812Z,8.00
2023-04-22T02:45:17.028Z,6.00
2023-04-22T02:47:46.329Z,6.75
2023-04-22T02:50:15.904Z,8.75
2023-04-22T02:52:44.096Z,6.00
2023-04-22T02:55:12.247Z,4.75
2023-04-22T02:57:41.055Z,6.00
2023-04-22T03:00:10.492Z,8.25
2023-04-22T03:02:39.499Z,6.75
2023-04-22T03:05:16.127Z,6.00
2023-04-22T03:07:44.774Z,7.50
2023-04-22T03:10:13.157Z,8.75
2023-04-22T03:12:41.700Z,4.75
2023-04-22T03:15:10.381Z,6.25
2023-04-22T03:17:38.728Z,8.75
2023-04-22T03:20:11.824Z,5.33
2023-04-22T03:22:41.516Z,8.00
2023-04-22T03:25:12.086Z,5.50
2023-04-22T03:27:41.055Z,2.00
2023-04-22T03:30:09.854Z,8.00
2023-04-22T03:32:38.400Z,4.50
2023-04-22T03:35:17.957Z,7.00
2023-04-22T03:37:50.420Z,6.75
2023-04-22T03:40:23.393Z,5.50
2023-04-22T03:42:51.790Z,8.25
2023-04-22T03:45:22.128Z,8.00
2023-04-22T03:48:03.232Z,5.00
2023-04-22T03:50:39.806Z,8.00
2023-04-22T03:53:11.309Z,8.25
2023-04-22T03:55:40.663Z,5.50
2023-04-22T03:58:08.830Z,5.00
2023-04-22T04:00:37.018Z,5.50
2023-04-22T04:03:11.356Z,5.75
2023-04-22T04:05:40.439Z,8.00
2023-04-22T04:08:08.614Z,9.50
2023-04-22T04:10:39.080Z,6.75
2023-04-22T04:13:07.601Z,6.50
2023-04-22T04:16:06.051Z,6.00
2023-04-22T04:18:34.410Z,7.25
2023-04-22T04:21:02.727Z,6.50
2023-04-22T04:23:33.680Z,6.00
2023-04-22T04:26:05.935Z,0.00
2023-04-22T04:28:37.800Z,7.00
2023-04-22T04:31:07.068Z,7.00
2023-04-22T04:33:37.143Z,7.50
2023-04-22T04:36:06.331Z,6.25
2023-04-22T04:38:36.394Z,6.75
2023-04-22T04:41:08.784Z,6.00
2023-04-22T04:43:37.901Z,4.50
2023-04-22T04:46:18.062Z,3.50
2023-04-22T04:48:48.887Z,5.00
2023-04-22T04:51:20.075Z,5.00
2023-04-22T04:53:56.093Z,5.00
2023-04-22T04:56:27.680Z,4.00
2023-04-22T04:58:56.695Z,6.00
2023-04-22T05:01:28.270Z,3.00
2023-04-22T05:04:02.324Z,3.00
2023-04-22T05:06:31.568Z,2.75
2023-04-22T05:09:04.505Z,4.00
2023-04-22T05:11:34.089Z,5.75
2023-04-22T05:14:05.405Z,4.50
2023-04-22T05:16:41.251Z,6.00
2023-04-22T05:19:10.568Z,1.50
2023-04-22T05:21:38.988Z,2.50
2023-04-22T05:24:07.832Z,2.50
2023-04-22T05:26:37.756Z,4.00
2023-04-22T05:29:12.366Z,2.00
2023-04-22T05:31:40.582Z,3.00
2023-04-22T05:34:09.440Z,5.25
2023-04-22T05:36:38.681Z,0.25
2023-04-22T05:39:07.411Z,2.50
2023-04-22T05:41:37.882Z,1.50
2023-04-22T05:44:10.397Z,1.25
2023-04-22T05:46:38.761Z,1.00
2023-04-22T05:49:07.138Z,1.50
2023-04-22T05:52:07.830Z,1.75
2023-04-22T05:54:50.909Z,3.00
2023-04-22T05:57:20.889Z,1.00
2023-04-22T05:59:49.061Z,0.00
2023-04-22T06:02:18.110Z,7.50
2023-04-22T06:04:46.717Z,1.75
2023-04-22T06:07:15.856Z,2.00
2023-04-22T06:09:43.984Z,2.00
2023-04-22T06:12:12.173Z,2.00
2023-04-22T06:14:42.314Z,3.25
2023-04-22T06:17:10.933Z,2.00
2023-04-22T06:19:39.288Z,2.00
2023-04-22T06:22:07.721Z,2.00
2023-04-22T06:24:35.894Z,2.75
2023-04-22T06:27:04.342Z,1.00
2023-04-22T06:29:32.493Z,0.75
2023-04-22T06:32:03.553Z,5.00
2023-04-22T06:34:32.416Z,1.25
2023-04-22T06:37:00.922Z,2.50
2023-04-22T06:39:29.555Z,2.00
2023-04-22T06:42:15.979Z,1.00
2023-04-22T06:45:02.764Z,1.00
2023-04-22T06:47:42.438Z,1.00
2023-04-22T06:50:32.173Z,0.00
2023-04-22T06:53:01.027Z,1.00
2023-04-22T06:55:30.005Z,2.50
2023-04-22T06:57:58.333Z,0.00
2023-04-22T07:00:28.281Z,1.50
2023-04-22T07:02:58.016Z,1.00
2023-04-22T07:05:26.285Z,3.25
2023-04-22T07:07:54.475Z,3.00
2023-04-22T07:10:25.871Z,1.00
2023-04-22T07:13:17.030Z,0.00
2023-04-22T07:15:46.338Z,1.00
2023-04-22T07:18:15.943Z,1.00
2023-04-22T07:20:44.090Z,2.50
2023-04-22T07:23:12.357Z,1.00
2023-04-22T07:25:40.533Z,0.75
2023-04-22T07:28:08.746Z,2.00
2023-04-22T07:30:37.029Z,1.00
2023-04-22T07:33:05.405Z,0.25
2023-04-22T07:35:35.217Z,5.00
2023-04-22T07:38:03.760Z,1.25
2023-04-22T07:40:31.930Z,1.00
2023-04-22T07:43:01.419Z,1.00
2023-04-22T07:45:29.676Z,1.00
2023-04-22T07:47:57.849Z,1.50
2023-04-22T07:50:26.383Z,0.00
2023-04-22T07:52:55.932Z,2.00
2023-04-22T07:55:24.140Z,1.50
2023-04-22T07:57:52.356Z,1.00
2023-04-22T08:00:20.504Z,1.00
2023-04-22T08:02:48.766Z,1.00
2023-04-22T08:05:17.124Z,0.50
2023-04-22T08:07:45.441Z,1.00
2023-04-22T08:10:17.533Z,1.00
2023-04-22T08:12:46.107Z,0.00
2023-04-22T08:15:14.504Z,1.00
2023-04-22T08:17:42.957Z,2.25
2023-04-22T08:20:11.432Z,1.00
2023-04-22T08:22:40.037Z,1.00
2023-04-22T08:25:09.506Z,0.75
2023-04-22T08:27:39.116Z,1.00
2023-04-22T08:30:08.257Z,2.00
2023-04-22T08:32:36.696Z,1.00
2023-04-22T08:35:05.589Z,0.50
2023-04-22T08:37:35.244Z,1.00
2023-04-22T08:40:04.996Z,1.25
2023-04-22T08:42:34.383Z,1.50
2023-04-22T08:45:04.561Z,2.00
2023-04-22T08:47:36.262Z,1.00
2023-04-22T08:50:06.465Z,1.00
2023-04-22T08:52:34.983Z,2.00
2023-04-22T08:55:03.287Z,2.00
2023-04-22T08:57:33.440Z,1.00
2023-04-22T09:00:01.780Z,0.00
2023-04-22T09:02:38.271Z,0.25
2023-04-22T09:05:07.459Z,2.25
2023-04-22T09:07:36.577Z,1.75
2023-04-22T09:10:04.828Z,1.00
2023-04-22T09:12:33.367Z,1.50
2023-04-22T09:15:01.650Z,1.00
2023-04-22T09:17:33.529Z,2.00
2023-04-22T09:20:05.441Z,1.75
2023-04-22T09:22:39.875Z,3.00
2023-04-22T09:25:09.247Z,2.50
2023-04-22T09:27:37.455Z,2.00
2023-04-22T09:30:09.554Z,2.75
2023-04-22T09:32:37.826Z,1.00
2023-04-22T09:35:08.610Z,2.75
2023-04-22T09:37:46.583Z,3.00
2023-04-22T09:40:19.552Z,2.00
2023-04-22T09:42:51.279Z,1.00
2023-04-22T09:45:30.599Z,2.50
2023-04-22T09:48:01.033Z,1.00
2023-04-22T09:50:30.832Z,2.25
2023-04-22T09:53:03.094Z,0.75
2023-04-22T09:55:32.331Z,1.00
2023-04-22T09:58:06.017Z,1.25
2023-04-22T10:00:34.217Z,1.00
2023-04-22T10:03:02.915Z,1.00
2023-04-22T10:05:33.742Z,2.00
2023-04-22T10:08:02.749Z,2.50
2023-04-22T10:10:31.211Z,4.25
2023-04-22T10:12:59.881Z,2.00
2023-04-22T10:15:33.332Z,0.00
2023-04-22T10:18:03.179Z,0.50
2023-04-22T10:20:33.297Z,2.00
2023-04-22T10:23:01.509Z,2.00
2023-04-22T10:25:29.637Z,1.00
2023-04-22T10:28:03.714Z,0.00
2023-04-22T10:30:32.904Z,1.75
2023-04-22T10:33:16.026Z,1.00
2023-04-22T10:36:03.049Z,1.00
2023-04-22T10:38:35.403Z,3.00
2023-04-22T10:41:04.241Z,1.00
2023-04-22T10:43:42.565Z,3.00
2023-04-22T10:46:45.566Z,1.00
2023-04-22T10:49:15.683Z,1.00
2023-04-22T10:51:44.997Z,1.00
2023-04-22T10:54:39.643Z,1.00
2023-04-22T10:57:08.553Z,1.00
2023-04-22T10:59:43.046Z,2.00
2023-04-22T11:02:13.184Z,1.00
2023-04-22T11:04:41.489Z,2.00
2023-04-22T11:07:17.166Z,2.00
2023-04-22T11:09:47.657Z,1.50
2023-04-22T11:12:34.412Z,3.75
2023-04-22T11:15:02.849Z,2.75
2023-04-22T11:17:33.065Z,1.75
2023-04-22T11:20:01.538Z,3.00
2023-04-22T11:22:35.889Z,2.00
2023-04-22T11:25:06.659Z,1.50
2023-04-22T11:27:34.857Z,3.25
2023-04-22T11:30:03.292Z,3.00
2023-04-22T11:32:36.557Z,1.75
2023-04-22T11:35:24.287Z,2.00
2023-04-22T11:37:53.186Z,2.00
2023-04-22T11:40:30.839Z,1.00
2023-04-22T11:43:01.160Z,1.75
2023-04-22T11:45:30.323Z,1.50
2023-04-22T11:48:00.194Z,0.75
2023-04-22T11:50:29.619Z,1.25
2023-04-22T11:53:01.249Z,2.25
2023-04-22T11:55:31.478Z,1.50
2023-04-22T11:58:00.564Z,1.00
2023-04-22T12:00:31.643Z,1.00
2023-04-22T12:03:01.049Z,1.25
2023-04-22T12:05:39.563Z,1.25
2023-04-22T12:08:09.278Z,2.00
2023-04-22T12:10:42.859Z,1.00
2023-04-22T12:13:11.199Z,2.00
2023-04-22T12:15:40.352Z,1.75
2023-04-22T12:18:08.763Z,1.75
2023-04-22T12:20:37.260Z,1.00
2023-04-22T12:23:05.772Z,2.25
2023-04-22T12:25:35.066Z,2.00
2023-04-22T12:28:04.948Z,0.00
2023-04-22T12:30:33.280Z,3.00
2023-04-22T12:33:02.144Z,3.00
2023-04-22T12:35:31.385Z,4.00
2023-04-22T12:37:59.685Z,2.25
2023-04-22T12:40:27.912Z,3.00
2023-04-22T12:42:56.185Z,7.50
2023-04-22T12:45:44.050Z,4.00
2023-04-22T12:48:12.336Z,4.00
2023-04-22T12:50:40.727Z,3.75
2023-04-22T12:53:09.915Z,4.50
2023-04-22T12:55:38.268Z,9.00
2023-04-22T12:58:06.407Z,4.75
2023-04-22T13:00:34.622Z,2.50
2023-04-22T13:03:04.378Z,4.00
2023-04-22T13:05:32.981Z,3.50
2023-04-22T13:08:07.368Z,2.25
2023-04-22T13:10:36.944Z,4.00
2023-04-22T13:13:17.927Z,3.25
2023-04-22T13:15:47.705Z,4.00
2023-04-22T13:22:46.149Z,3.75
2023-04-22T13:25:15.891Z,3.00
2023-04-22T13:27:44.071Z,2.00
2023-04-22T13:30:12.846Z,1.00
2023-04-22T13:32:41.109Z,2.75
2023-04-22T13:35:09.769Z,2.75
2023-04-22T13:37:37.961Z,5.00
2023-04-22T13:40:07.003Z,2.25
2023-04-22T13:42:36.992Z,3.25
2023-04-22T13:45:05.441Z,3.00
2023-04-22T13:47:33.947Z,2.50
2023-04-22T13:50:02.314Z,3.00
2023-04-22T13:52:32.080Z,3.00
2023-04-22T13:55:00.279Z,3.50
2023-04-22T13:57:28.450Z,4.00
2023-04-22T13:59:58.025Z,4.75
2023-04-22T14:02:26.646Z,2.50
2023-04-22T14:04:54.945Z,2.50
2023-04-22T14:07:23.631Z,4.75
2023-04-22T14:09:51.838Z,3.75
2023-04-22T14:12:20.184Z,3.00
2023-04-22T14:14:48.481Z,4.00
2023-04-22T14:17:19.829Z,1.75
2023-04-22T14:19:47.975Z,2.00
2023-04-22T14:22:16.202Z,2.00
2023-04-22T14:24:44.376Z,2.00
2023-04-22T14:27:12.830Z,2.00
2023-04-22T14:29:41.663Z,4.25
2023-04-22T14:32:10.280Z,4.25
2023-04-22T14:34:39.979Z,4.00
2023-04-22T14:37:08.310Z,4.50
2023-04-22T14:39:36.604Z,6.75
2023-04-22T14:42:06.058Z,4.25
2023-04-22T14:44:34.243Z,1.00
2023-04-22T14:47:02.614Z,4.00
2023-04-22T14:49:32.731Z,3.00
2023-04-22T14:52:03.270Z,2.75
2023-04-22T14:54:31.480Z,3.50
2023-04-22T14:57:00.521Z,3.50
2023-04-22T14:59:28.705Z,4.25
2023-04-22T15:01:57.029Z,5.75
2023-04-22T15:04:25.442Z,5.50
2023-04-22T15:06:57.674Z,11.00
2023-04-22T15:09:27.990Z,4.75
2023-04-22T15:11:57.433Z,8.75
2023-04-22T15:14:25.690Z,9.50
2023-04-22T15:16:53.883Z,3.00
2023-04-22T15:19:22.059Z,9.00
2023-04-22T15:21:50.365Z,4.50
2023-04-22T15:24:20.175Z,7.25
2023-04-22T15:26:49.942Z,4.75
2023-04-22T15:29:18.226Z,9.33
2023-04-22T15:31:46.853Z,11.75
2023-04-22T15:34:15.304Z,10.00
2023-04-22T15:36:43.797Z,5.25
2023-04-22T15:39:12.700Z,11.00
2023-04-22T15:41:42.164Z,8.25
2023-04-22T15:44:30.517Z,9.50
2023-04-22T15:46:59.510Z,10.00
2023-04-22T15:49:27.938Z,9.00
2023-04-22T15:51:56.338Z,11.00
2023-04-22T15:54:42.261Z,9.75
2023-04-22T15:57:11.057Z,9.75
2023-04-22T15:59:41.209Z,9.00
2023-04-22T16:02:10.850Z,9.50
2023-04-22T16:04:39.258Z,13.75
2023-04-22T16:07:26.263Z,14.00
2023-04-22T16:09:54.467Z,13.50
2023-04-22T16:12:22.963Z,12.50
2023-04-22T16:14:52.556Z,15.25
2023-04-22T16:17:21.391Z,14.00
2023-04-22T16:19:50.210Z,12.50
2023-04-22T16:22:18.395Z,14.50
2023-04-22T16:25:06.464Z,11.00
2023-04-22T16:27:34.672Z,13.50
2023-04-22T16:30:04.520Z,9.75
2023-04-22T16:32:34.017Z,17.50
2023-04-22T16:35:02.981Z,19.25
2023-04-22T16:37:32.321Z,10.00
2023-04-22T16:40:06.154Z,9.67
2023-04-22T16:42:35.811Z,14.50
2023-04-22T16:45:05.962Z,19.25
2023-04-22T16:47:35.825Z,15.00
2023-04-22T16:50:04.212Z,10.75
2023-04-22T16:52:33.674Z,15.50
2023-04-22T16:55:03.508Z,9.00
2023-04-22T16:57:32.579Z,12.00
2023-04-22T17:00:09.510Z,10.25
2023-04-22T17:02:42.527Z,11.75
2023-04-22T17:05:11.162Z,12.75
2023-04-22T17:07:40.109Z,20.75
2023-04-22T17:10:08.841Z,41.40
2023-04-22T17:12:37.215Z,47.60
2023-04-22T17:15:05.799Z,24.75
2023-04-22T17:17:34.350Z,20.75
2023-04-22T17:20:06.504Z,22.00
2023-04-22T17:22:34.820Z,18.50
2023-04-22T17:25:20.430Z,18.00
2023-04-22T17:27:48.574Z,19.75
2023-04-22T17:30:16.948Z,16.50
2023-04-22T17:32:45.271Z,14.75
2023-04-22T17:35:14.968Z,13.50
2023-04-22T17:37:43.213Z,16.50
2023-04-22T17:40:11.739Z,13.25
2023-04-22T17:42:45.651Z,13.75
2023-04-22T17:45:15.184Z,13.50
2023-04-22T17:47:43.661Z,14.00
2023-04-22T17:50:12.277Z,12.00
2023-04-22T17:52:42.224Z,13.25
2023-04-22T17:55:11.126Z,17.25
2023-04-22T17:57:58.277Z,17.00
2023-04-22T18:00:27.138Z,18.00
2023-04-22T18:02:55.916Z,18.00
2023-04-22T18:05:24.376Z,17.50
2023-04-22T18:07:58.262Z,15.25
2023-04-22T18:10:26.517Z,20.25
2023-04-22T18:12:55.056Z,17.00
2023-04-22T18:15:24.447Z,23.00
2023-04-22T18:17:53.097Z,15.50
2023-04-22T18:20:21.709Z,13.75
2023-04-22T18:22:52.164Z,17.25
2023-04-22T18:25:22.085Z,17.25
2023-04-22T18:27:54.993Z,19.00
2023-04-22T18:30:23.420Z,15.00
2023-04-22T18:32:51.854Z,12.75
2023-04-22T18:35:20.948Z,16.00
2023-04-22T18:37:49.126Z,17.50
2023-04-22T18:40:17.676Z,13.50
2023-04-22T18:42:47.917Z,15.50
2023-04-22T18:45:16.952Z,17.25
2023-04-22T18:47:45.898Z,21.75
2023-04-22T18:50:14.499Z,19.50
2023-04-22T18:52:43.376Z,17.00
2023-04-22T18:55:11.696Z,16.25
2023-04-22T18:57:40.042Z,17.75
2023-04-22T19:00:12.826Z,15.75
2023-04-22T19:02:42.479Z,10.00
2023-04-22T19:05:11.406Z,15.25
2023-04-22T19:07:42.490Z,15.00
2023-04-22T19:10:12.252Z,19.50
2023-04-22T19:12:40.577Z,12.75
2023-04-22T19:15:11.073Z,19.75
2023-04-22T19:17:39.461Z,20.00
2023-04-22T19:20:08.465Z,20.25
2023-04-22T19:22:36.781Z,23.25
2023-04-22T19:25:07.013Z,24.00
2023-04-22T19:27:35.975Z,21.75
2023-04-22T19:30:08.333Z,18.00
2023-04-22T19:32:38.149Z,23.25
2023-04-22T19:35:08.185Z,24.00
2023-04-22T19:37:36.399Z,23.75
2023-04-22T19:40:05.617Z,27.00
2023-04-22T19:42:33.904Z,24.50
2023-04-22T19:45:02.146Z,21.50
2023-04-22T19:47:32.934Z,21.25
2023-04-22T19:50:03.031Z,21.00
2023-04-22T19:52:33.297Z,26.00
2023-04-22T19:55:06.695Z,20.00
2023-04-22T19:57:34.916Z,24.50
2023-04-22T20:00:05.240Z,22.25
2023-04-22T20:02:42.465Z,20.00
2023-04-22T20:05:12.859Z,22.50
2023-04-22T20:07:43.175Z,21.80
2023-04-22T20:10:11.682Z,22.50
2023-04-22T20:12:41.564Z,24.00
2023-04-22T20:15:10.709Z,23.20
2023-04-22T20:17:39.697Z,27.00
2023-04-22T20:20:13.057Z,28.60
2023-04-22T20:22:43.480Z,33.00
2023-04-22T20:25:13.903Z,33.00
2023-04-22T20:27:42.588Z,29.75
2023-04-22T20:30:11.877Z,24.50
2023-04-22T20:32:40.312Z,25.50
2023-04-22T20:35:11.390Z,24.00
2023-04-22T20:37:40.330Z,21.25
2023-04-22T20:40:11.266Z,24.25
2023-04-22T20:42:39.737Z,24.80
2023-04-22T20:45:09.792Z,25.00
2023-04-22T20:47:38.017Z,28.60
2023-04-22T20:50:08.260Z,25.20
2023-04-22T20:52:36.653Z,27.40
2023-04-22T20:55:06.601Z,23.80
2023-04-22T20:57:36.737Z,24.25
2023-04-22T21:00:05.598Z,27.00
2023-04-22T21:02:43.306Z,25.75
2023-04-22T21:05:12.689Z,24.80
2023-04-22T21:07:41.523Z,27.60
2023-04-22T21:10:10.631Z,26.60
2023-04-22T21:12:40.892Z,27.60
2023-04-22T21:15:09.678Z,27.00
2023-04-22T21:17:40.037Z,28.40
2023-04-22T21:20:09.600Z,26.80
2023-04-22T21:22:39.006Z,28.60
2023-04-22T21:25:08.178Z,27.60
2023-04-22T21:27:36.675Z,28.60
2023-04-22T21:30:07.424Z,25.20
2023-04-22T21:32:40.608Z,24.50
2023-04-22T21:35:09.196Z,30.50
2023-04-22T21:37:37.575Z,26.25
2023-04-22T21:40:07.266Z,20.80
2023-04-22T21:42:35.633Z,35.00
2023-04-22T21:45:03.874Z,34.80
2023-04-22T21:47:34.500Z,35.20
2023-04-22T21:50:02.730Z,46.20
2023-04-22T21:52:32.247Z,32.00
2023-04-22T21:55:00.448Z,32.00
2023-04-22T21:57:28.613Z,27.40
2023-04-22T21:59:56.950Z,26.80
2023-04-22T22:02:26.670Z,28.00
2023-04-22T22:04:56.622Z,25.20
2023-04-22T22:07:24.811Z,22.20
2023-04-22T22:09:53.045Z,34.20
2023-04-22T22:12:21.177Z,27.80
2023-04-22T22:14:49.373Z,31.00
2023-04-22T22:17:17.589Z,30.40
2023-04-22T22:19:45.866Z,30.60
2023-04-22T22:22:15.881Z,30.80
2023-04-22T22:24:44.411Z,34.20
2023-04-22T22:27:13.000Z,25.60
2023-04-22T22:29:41.586Z,27.80
2023-04-22T22:32:10.037Z,25.40
2023-04-22T22:34:38.482Z,26.25
2023-04-22T22:37:07.173Z,26.00
2023-04-22T22:39:36.823Z,24.20
2023-04-22T22:42:05.018Z,27.80
2023-04-22T22:44:33.293Z,24.60
2023-04-22T22:47:01.474Z,35.00
2023-04-22T22:49:29.889Z,26.60
2023-04-22T22:51:58.034Z,27.00
2023-04-22T22:54:26.414Z,34.80
2023-04-22T22:56:56.502Z,29.40
2023-04-22T22:59:24.951Z,37.20
2023-04-22T23:01:53.113Z,40.00
2023-04-22T23:04:21.393Z,26.40
2023-04-22T23:06:49.924Z,29.50
2023-04-22T23:09:19.240Z,25.60
2023-04-22T23:11:49.444Z,29.80
2023-04-22T23:14:19.554Z,27.20
2023-04-22T23:16:47.973Z,30.40
2023-04-22T23:19:17.186Z,27.20
2023-04-22T23:21:45.655Z,28.80
2023-04-22T23:24:14.718Z,32.20
2023-04-22T23:26:43.057Z,46.00
2023-04-22T23:29:11.740Z,33.20
2023-04-22T23:31:42.795Z,48.80
2023-04-22T23:34:11.279Z,31.00
2023-04-22T23:36:39.578Z,41.40
2023-04-22T23:39:09.829Z,33.60
2023-04-22T23:41:38.158Z,29.40
2023-04-22T23:44:06.643Z,36.80
2023-04-22T23:46:34.758Z,36.00
2023-04-22T23:49:04.515Z,28.00
2023-04-22T23:51:32.755Z,35.40
2023-04-22T23:54:00.889Z,36.80
2023-04-22T23:56:29.354Z,28.75
2023-04-22T23:58:57.834Z,28.25
